sensor_id;sensor_type;location;lat;lon;timestamp;P1;durP1;ratioP1;P2;durP2;ratioP2
48403;SDS011;34202;52.536;6.042;2023-03-16T00:03:54;5.60;;;3.10;;
48403;SDS011;34202;52.536;6.042;2023-03-16T00:08:54;4.20;;;2.70;;
48403;SDS011;34202;52.536;6.042;2023-03-16T00:13:58;15.90;;;3.90;;
48403;SDS011;34202;52.536;6.042;2023-03-16T00:18:58;5.30;;;2.70;;
48403;SDS011;34202;52.536;6.042;2023-03-16T00:23:58;6.60;;;2.90;;
48403;SDS011;34202;52.536;6.042;2023-03-16T00:28:59;5.50;;;2.90;;
48403;SDS011;34202;52.536;6.042;2023-03-16T00:34:00;4.60;;;2.70;;
48403;SDS011;34202;52.536;6.042;2023-03-16T00:39:01;3.70;;;2.90;;
48403;SDS011;34202;52.536;6.042;2023-03-16T00:44:04;4.60;;;3.40;;
48403;SDS011;34202;52.536;6.042;2023-03-16T00:49:05;3.90;;;2.80;;
48403;SDS011;34202;52.536;6.042;2023-03-16T00:54:05;8.20;;;3.10;;
48403;SDS011;34202;52.536;6.042;2023-03-16T00:59:05;6.90;;;3.60;;
48403;SDS011;34202;52.536;6.042;2023-03-16T01:04:07;6.60;;;3.40;;
48403;SDS011;34202;52.536;6.042;2023-03-16T01:09:08;5.70;;;3.40;;
48403;SDS011;34202;52.536;6.042;2023-03-16T01:14:09;7.60;;;2.80;;
48403;SDS011;34202;52.536;6.042;2023-03-16T01:19:13;4.90;;;3.20;;
48403;SDS011;34202;52.536;6.042;2023-03-16T01:24:14;11.10;;;4.30;;
48403;SDS011;34202;52.536;6.042;2023-03-16T01:29:14;2.60;;;2.30;;
48403;SDS011;34202;52.536;6.042;2023-03-16T01:34:15;3.80;;;2.70;;
48403;SDS011;34202;52.536;6.042;2023-03-16T01:39:17;5.60;;;3.50;;
48403;SDS011;34202;52.536;6.042;2023-03-16T01:44:19;7.00;;;3.50;;
48403;SDS011;34202;52.536;6.042;2023-03-16T01:49:30;6.90;;;3.40;;
48403;SDS011;34202;52.536;6.042;2023-03-16T02:04:49;4.40;;;3.10;;
48403;SDS011;34202;52.536;6.042;2023-03-16T02:10:03;4.70;;;3.00;;
48403;SDS011;34202;52.536;6.042;2023-03-16T02:15:05;4.90;;;3.40;;
48403;SDS011;34202;52.536;6.042;2023-03-16T02:25:18;5.80;;;3.00;;
48403;SDS011;34202;52.536;6.042;2023-03-16T02:30:24;4.50;;;3.10;;
48403;SDS011;34202;52.536;6.042;2023-03-16T02:35:25;4.40;;;3.00;;
48403;SDS011;34202;52.536;6.042;2023-03-16T02:40:27;5.00;;;3.10;;
48403;SDS011;34202;52.536;6.042;2023-03-16T02:45:31;4.20;;;2.90;;
48403;SDS011;34202;52.536;6.042;2023-03-16T02:50:35;4.70;;;2.80;;
48403;SDS011;34202;52.536;6.042;2023-03-16T02:55:41;10.60;;;4.20;;
48403;SDS011;34202;52.536;6.042;2023-03-16T03:00:42;6.00;;;4.40;;
48403;SDS011;34202;52.536;6.042;2023-03-16T03:05:42;7.20;;;3.70;;
48403;SDS011;34202;52.536;6.042;2023-03-16T03:10:43;3.90;;;3.30;;
48403;SDS011;34202;52.536;6.042;2023-03-16T03:15:43;6.60;;;3.60;;
48403;SDS011;34202;52.536;6.042;2023-03-16T03:20:44;5.40;;;4.00;;
48403;SDS011;34202;52.536;6.042;2023-03-16T03:25:44;5.10;;;3.20;;
48403;SDS011;34202;52.536;6.042;2023-03-16T03:30:46;6.10;;;3.90;;
48403;SDS011;34202;52.536;6.042;2023-03-16T03:35:52;11.10;;;4.60;;
48403;SDS011;34202;52.536;6.042;2023-03-16T03:40:54;7.70;;;3.70;;
48403;SDS011;34202;52.536;6.042;2023-03-16T03:45:58;7.90;;;3.30;;
48403;SDS011;34202;52.536;6.042;2023-03-16T03:51:00;11.40;;;4.10;;
48403;SDS011;34202;52.536;6.042;2023-03-16T03:56:01;5.60;;;4.10;;
48403;SDS011;34202;52.536;6.042;2023-03-16T04:01:01;4.60;;;3.20;;
48403;SDS011;34202;52.536;6.042;2023-03-16T04:06:02;11.70;;;5.00;;
48403;SDS011;34202;52.536;6.042;2023-03-16T04:11:02;10.20;;;4.20;;
48403;SDS011;34202;52.536;6.042;2023-03-16T04:16:02;6.60;;;3.70;;
48403;SDS011;34202;52.536;6.042;2023-03-16T04:21:06;8.80;;;3.90;;
48403;SDS011;34202;52.536;6.042;2023-03-16T04:26:11;7.90;;;4.30;;
48403;SDS011;34202;52.536;6.042;2023-03-16T04:31:12;5.80;;;4.10;;
48403;SDS011;34202;52.536;6.042;2023-03-16T04:36:13;9.40;;;5.00;;
48403;SDS011;34202;52.536;6.042;2023-03-16T04:41:13;6.30;;;4.40;;
48403;SDS011;34202;52.536;6.042;2023-03-16T04:46:13;6.50;;;4.80;;
48403;SDS011;34202;52.536;6.042;2023-03-16T04:51:14;6.60;;;3.90;;
48403;SDS011;34202;52.536;6.042;2023-03-16T04:56:14;6.80;;;3.60;;
48403;SDS011;34202;52.536;6.042;2023-03-16T05:01:17;9.40;;;4.30;;
48403;SDS011;34202;52.536;6.042;2023-03-16T05:06:17;8.20;;;4.40;;
48403;SDS011;34202;52.536;6.042;2023-03-16T05:11:18;6.00;;;4.10;;
48403;SDS011;34202;52.536;6.042;2023-03-16T05:16:18;6.60;;;4.30;;
48403;SDS011;34202;52.536;6.042;2023-03-16T05:21:19;6.50;;;3.90;;
48403;SDS011;34202;52.536;6.042;2023-03-16T05:26:19;5.30;;;4.40;;
48403;SDS011;34202;52.536;6.042;2023-03-16T05:31:19;9.00;;;5.00;;
48403;SDS011;34202;52.536;6.042;2023-03-16T05:36:20;6.10;;;4.50;;
48403;SDS011;34202;52.536;6.042;2023-03-16T05:41:20;8.70;;;4.40;;
48403;SDS011;34202;52.536;6.042;2023-03-16T05:46:21;6.70;;;3.70;;
48403;SDS011;34202;52.536;6.042;2023-03-16T05:51:22;5.60;;;3.70;;
48403;SDS011;34202;52.536;6.042;2023-03-16T05:56:25;5.30;;;3.70;;
48403;SDS011;34202;52.536;6.042;2023-03-16T06:01:27;6.40;;;4.10;;
48403;SDS011;34202;52.536;6.042;2023-03-16T06:06:27;6.50;;;4.00;;
48403;SDS011;34202;52.536;6.042;2023-03-16T06:11:28;6.80;;;4.10;;
48403;SDS011;34202;52.536;6.042;2023-03-16T06:16:28;6.10;;;3.90;;
48403;SDS011;34202;52.536;6.042;2023-03-16T06:21:29;6.30;;;4.40;;
48403;SDS011;34202;52.536;6.042;2023-03-16T06:26:29;8.10;;;5.10;;
48403;SDS011;34202;52.536;6.042;2023-03-16T06:31:30;6.90;;;4.10;;
48403;SDS011;34202;52.536;6.042;2023-03-16T06:36:32;13.80;;;5.40;;
48403;SDS011;34202;52.536;6.042;2023-03-16T06:41:33;6.30;;;3.80;;
48403;SDS011;34202;52.536;6.042;2023-03-16T06:46:34;7.20;;;4.80;;
48403;SDS011;34202;52.536;6.042;2023-03-16T06:51:35;5.50;;;4.10;;
48403;SDS011;34202;52.536;6.042;2023-03-16T06:56:35;6.30;;;4.80;;
48403;SDS011;34202;52.536;6.042;2023-03-16T07:01:35;9.50;;;4.60;;
48403;SDS011;34202;52.536;6.042;2023-03-16T07:06:36;8.20;;;4.70;;
48403;SDS011;34202;52.536;6.042;2023-03-16T07:11:36;8.50;;;4.10;;
48403;SDS011;34202;52.536;6.042;2023-03-16T07:16:37;11.10;;;4.70;;
48403;SDS011;34202;52.536;6.042;2023-03-16T07:21:38;7.00;;;4.50;;
48403;SDS011;34202;52.536;6.042;2023-03-16T07:26:39;5.00;;;3.90;;
48403;SDS011;34202;52.536;6.042;2023-03-16T07:31:42;7.50;;;3.80;;
48403;SDS011;34202;52.536;6.042;2023-03-16T07:36:42;10.20;;;4.40;;
48403;SDS011;34202;52.536;6.042;2023-03-16T07:41:42;4.40;;;3.80;;
48403;SDS011;34202;52.536;6.042;2023-03-16T07:46:43;6.20;;;3.90;;
48403;SDS011;34202;52.536;6.042;2023-03-16T07:51:43;7.00;;;4.20;;
48403;SDS011;34202;52.536;6.042;2023-03-16T07:56:44;4.40;;;3.80;;
48403;SDS011;34202;52.536;6.042;2023-03-16T08:01:44;5.70;;;3.30;;
48403;SDS011;34202;52.536;6.042;2023-03-16T08:06:45;14.20;;;5.10;;
48403;SDS011;34202;52.536;6.042;2023-03-16T08:11:46;5.70;;;3.60;;
48403;SDS011;34202;52.536;6.042;2023-03-16T08:16:47;5.80;;;4.20;;
48403;SDS011;34202;52.536;6.042;2023-03-16T08:21:47;5.20;;;4.50;;
48403;SDS011;34202;52.536;6.042;2023-03-16T08:26:48;4.50;;;3.60;;
48403;SDS011;34202;52.536;6.042;2023-03-16T08:31:48;5.60;;;4.20;;
48403;SDS011;34202;52.536;6.042;2023-03-16T08:36:49;5.50;;;4.20;;
48403;SDS011;34202;52.536;6.042;2023-03-16T08:41:49;5.40;;;4.00;;
48403;SDS011;34202;52.536;6.042;2023-03-16T08:46:50;5.80;;;3.40;;
48403;SDS011;34202;52.536;6.042;2023-03-16T08:51:50;5.80;;;4.00;;
48403;SDS011;34202;52.536;6.042;2023-03-16T08:56:51;6.30;;;3.20;;
48403;SDS011;34202;52.536;6.042;2023-03-16T09:01:51;8.30;;;4.00;;
48403;SDS011;34202;52.536;6.042;2023-03-16T09:06:51;7.50;;;4.30;;
48403;SDS011;34202;52.536;6.042;2023-03-16T09:11:52;5.90;;;4.20;;
48403;SDS011;34202;52.536;6.042;2023-03-16T09:16:52;7.30;;;4.10;;
48403;SDS011;34202;52.536;6.042;2023-03-16T09:21:53;8.40;;;3.30;;
48403;SDS011;34202;52.536;6.042;2023-03-16T09:26:53;4.80;;;3.90;;
48403;SDS011;34202;52.536;6.042;2023-03-16T09:31:54;7.70;;;4.60;;
48403;SDS011;34202;52.536;6.042;2023-03-16T09:36:55;4.80;;;3.10;;
48403;SDS011;34202;52.536;6.042;2023-03-16T09:42:02;7.40;;;4.10;;
48403;SDS011;34202;52.536;6.042;2023-03-16T09:47:12;9.90;;;4.00;;
48403;SDS011;34202;52.536;6.042;2023-03-16T09:57:40;8.50;;;4.80;;
48403;SDS011;34202;52.536;6.042;2023-03-16T10:18:39;9.90;;;4.20;;
48403;SDS011;34202;52.536;6.042;2023-03-16T10:23:46;5.70;;;3.40;;
48403;SDS011;34202;52.536;6.042;2023-03-16T10:28:49;5.70;;;3.70;;
48403;SDS011;34202;52.536;6.042;2023-03-16T10:33:53;5.40;;;3.10;;
48403;SDS011;34202;52.536;6.042;2023-03-16T10:39:05;6.10;;;3.50;;
48403;SDS011;34202;52.536;6.042;2023-03-16T10:44:23;5.70;;;3.10;;
48403;SDS011;34202;52.536;6.042;2023-03-16T10:49:28;4.70;;;3.30;;
48403;SDS011;34202;52.536;6.042;2023-03-16T10:54:36;5.20;;;2.90;;
48403;SDS011;34202;52.536;6.042;2023-03-16T10:59:38;6.80;;;3.80;;
48403;SDS011;34202;52.536;6.042;2023-03-16T11:04:39;6.60;;;3.90;;
48403;SDS011;34202;52.536;6.042;2023-03-16T11:09:40;5.80;;;3.20;;
48403;SDS011;34202;52.536;6.042;2023-03-16T11:14:42;4.10;;;3.20;;
48403;SDS011;34202;52.536;6.042;2023-03-16T11:19:49;5.60;;;3.50;;
48403;SDS011;34202;52.536;6.042;2023-03-16T11:25:01;3.80;;;2.90;;
48403;SDS011;34202;52.536;6.042;2023-03-16T11:30:09;7.10;;;3.50;;
48403;SDS011;34202;52.536;6.042;2023-03-16T11:35:21;3.90;;;2.80;;
48403;SDS011;34202;52.536;6.042;2023-03-16T11:40:35;6.40;;;4.20;;
48403;SDS011;34202;52.536;6.042;2023-03-16T11:51:04;4.00;;;3.30;;
48403;SDS011;34202;52.536;6.042;2023-03-16T11:56:33;6.40;;;3.10;;
48403;SDS011;34202;52.536;6.042;2023-03-16T12:07:04;7.50;;;3.10;;
48403;SDS011;34202;52.536;6.042;2023-03-16T12:17:38;6.80;;;3.30;;
48403;SDS011;34202;52.536;6.042;2023-03-16T12:22:42;9.50;;;3.60;;
48403;SDS011;34202;52.536;6.042;2023-03-16T12:27:45;8.00;;;3.50;;
48403;SDS011;34202;52.536;6.042;2023-03-16T12:38:04;6.10;;;3.50;;
48403;SDS011;34202;52.536;6.042;2023-03-16T12:43:23;7.00;;;3.90;;
48403;SDS011;34202;52.536;6.042;2023-03-16T12:48:43;6.80;;;3.50;;
48403;SDS011;34202;52.536;6.042;2023-03-16T12:53:52;4.60;;;3.40;;
48403;SDS011;34202;52.536;6.042;2023-03-16T12:58:54;5.70;;;3.90;;
48403;SDS011;34202;52.536;6.042;2023-03-16T13:03:58;4.30;;;3.80;;
48403;SDS011;34202;52.536;6.042;2023-03-16T13:09:02;6.90;;;3.70;;
48403;SDS011;34202;52.536;6.042;2023-03-16T13:14:06;7.00;;;3.70;;
48403;SDS011;34202;52.536;6.042;2023-03-16T13:19:27;5.90;;;3.40;;
48403;SDS011;34202;52.536;6.042;2023-03-16T13:24:36;6.60;;;3.00;;
48403;SDS011;34202;52.536;6.042;2023-03-16T13:29:38;7.00;;;4.30;;
48403;SDS011;34202;52.536;6.042;2023-03-16T13:34:45;9.00;;;4.10;;
48403;SDS011;34202;52.536;6.042;2023-03-16T13:39:52;5.60;;;3.40;;
48403;SDS011;34202;52.536;6.042;2023-03-16T13:44:55;6.50;;;3.70;;
48403;SDS011;34202;52.536;6.042;2023-03-16T13:49:58;4.90;;;3.30;;
48403;SDS011;34202;52.536;6.042;2023-03-16T13:54:59;4.40;;;3.70;;
48403;SDS011;34202;52.536;6.042;2023-03-16T14:00:11;6.10;;;3.70;;
48403;SDS011;34202;52.536;6.042;2023-03-16T14:05:23;11.10;;;3.60;;
48403;SDS011;34202;52.536;6.042;2023-03-16T14:10:32;6.30;;;3.00;;
48403;SDS011;34202;52.536;6.042;2023-03-16T14:15:35;3.70;;;3.10;;
48403;SDS011;34202;52.536;6.042;2023-03-16T14:20:37;8.50;;;3.10;;
48403;SDS011;34202;52.536;6.042;2023-03-16T14:25:39;5.10;;;2.60;;
48403;SDS011;34202;52.536;6.042;2023-03-16T14:30:49;5.20;;;2.70;;
48403;SDS011;34202;52.536;6.042;2023-03-16T14:35:54;5.30;;;2.70;;
48403;SDS011;34202;52.536;6.042;2023-03-16T14:45:58;6.60;;;3.30;;
48403;SDS011;34202;52.536;6.042;2023-03-16T14:51:00;5.10;;;2.80;;
48403;SDS011;34202;52.536;6.042;2023-03-16T14:56:02;2.50;;;2.30;;
48403;SDS011;34202;52.536;6.042;2023-03-16T15:01:02;5.70;;;2.40;;
48403;SDS011;34202;52.536;6.042;2023-03-16T15:06:04;3.30;;;2.40;;
48403;SDS011;34202;52.536;6.042;2023-03-16T15:11:04;3.50;;;2.40;;
48403;SDS011;34202;52.536;6.042;2023-03-16T15:16:08;5.50;;;3.10;;
48403;SDS011;34202;52.536;6.042;2023-03-16T15:21:11;5.60;;;2.50;;
48403;SDS011;34202;52.536;6.042;2023-03-16T15:26:17;5.70;;;2.90;;
48403;SDS011;34202;52.536;6.042;2023-03-16T15:31:21;4.80;;;2.90;;
48403;SDS011;34202;52.536;6.042;2023-03-16T15:36:22;6.60;;;2.50;;
48403;SDS011;34202;52.536;6.042;2023-03-16T15:41:23;4.50;;;2.50;;
48403;SDS011;34202;52.536;6.042;2023-03-16T15:46:25;5.70;;;3.40;;
48403;SDS011;34202;52.536;6.042;2023-03-16T15:51:27;3.80;;;2.60;;
48403;SDS011;34202;52.536;6.042;2023-03-16T15:56:30;5.10;;;2.20;;
48403;SDS011;34202;52.536;6.042;2023-03-16T16:01:44;9.30;;;2.90;;
48403;SDS011;34202;52.536;6.042;2023-03-16T16:06:47;3.90;;;2.80;;
48403;SDS011;34202;52.536;6.042;2023-03-16T16:11:48;3.70;;;2.60;;
48403;SDS011;34202;52.536;6.042;2023-03-16T16:16:50;4.40;;;2.70;;
48403;SDS011;34202;52.536;6.042;2023-03-16T16:21:50;4.50;;;2.90;;
48403;SDS011;34202;52.536;6.042;2023-03-16T16:26:51;4.30;;;2.70;;
48403;SDS011;34202;52.536;6.042;2023-03-16T16:31:52;5.60;;;3.60;;
48403;SDS011;34202;52.536;6.042;2023-03-16T16:36:52;5.20;;;2.50;;
48403;SDS011;34202;52.536;6.042;2023-03-16T16:41:54;4.90;;;2.40;;
48403;SDS011;34202;52.536;6.042;2023-03-16T16:46:55;4.10;;;2.30;;
48403;SDS011;34202;52.536;6.042;2023-03-16T16:51:57;4.30;;;2.40;;
48403;SDS011;34202;52.536;6.042;2023-03-16T16:56:58;3.30;;;2.30;;
48403;SDS011;34202;52.536;6.042;2023-03-16T17:02:00;6.30;;;2.50;;
48403;SDS011;34202;52.536;6.042;2023-03-16T17:07:11;7.90;;;2.90;;
48403;SDS011;34202;52.536;6.042;2023-03-16T17:12:15;5.50;;;2.80;;
48403;SDS011;34202;52.536;6.042;2023-03-16T17:17:20;3.30;;;2.40;;
48403;SDS011;34202;52.536;6.042;2023-03-16T17:22:22;7.70;;;3.10;;
48403;SDS011;34202;52.536;6.042;2023-03-16T17:27:25;7.20;;;2.30;;
48403;SDS011;34202;52.536;6.042;2023-03-16T17:32:28;5.60;;;2.80;;
48403;SDS011;34202;52.536;6.042;2023-03-16T17:37:30;5.00;;;2.00;;
48403;SDS011;34202;52.536;6.042;2023-03-16T17:42:30;5.00;;;2.30;;
48403;SDS011;34202;52.536;6.042;2023-03-16T17:47:30;3.90;;;2.50;;
48403;SDS011;34202;52.536;6.042;2023-03-16T17:52:35;7.00;;;3.10;;
48403;SDS011;34202;52.536;6.042;2023-03-16T17:57:36;6.30;;;2.50;;
48403;SDS011;34202;52.536;6.042;2023-03-16T18:02:48;4.70;;;2.20;;
48403;SDS011;34202;52.536;6.042;2023-03-16T18:07:53;4.30;;;2.40;;
48403;SDS011;34202;52.536;6.042;2023-03-16T18:12:59;4.50;;;2.60;;
48403;SDS011;34202;52.536;6.042;2023-03-16T18:18:05;7.30;;;2.30;;
48403;SDS011;34202;52.536;6.042;2023-03-16T18:23:12;3.80;;;2.20;;
48403;SDS011;34202;52.536;6.042;2023-03-16T18:28:23;3.70;;;2.10;;
48403;SDS011;34202;52.536;6.042;2023-03-16T18:33:24;3.80;;;2.00;;
48403;SDS011;34202;52.536;6.042;2023-03-16T18:43:31;4.10;;;2.30;;
48403;SDS011;34202;52.536;6.042;2023-03-16T18:48:32;5.10;;;2.30;;
48403;SDS011;34202;52.536;6.042;2023-03-16T18:53:34;4.80;;;2.10;;
48403;SDS011;34202;52.536;6.042;2023-03-16T18:58:34;5.30;;;2.60;;
48403;SDS011;34202;52.536;6.042;2023-03-16T19:03:35;3.80;;;2.80;;
48403;SDS011;34202;52.536;6.042;2023-03-16T19:08:42;7.00;;;1.80;;
48403;SDS011;34202;52.536;6.042;2023-03-16T19:13:42;2.40;;;1.60;;
48403;SDS011;34202;52.536;6.042;2023-03-16T19:18:43;2.80;;;2.10;;
48403;SDS011;34202;52.536;6.042;2023-03-16T19:23:46;4.80;;;2.30;;
48403;SDS011;34202;52.536;6.042;2023-03-16T19:28:56;4.70;;;2.10;;
48403;SDS011;34202;52.536;6.042;2023-03-16T19:33:56;5.60;;;2.10;;
48403;SDS011;34202;52.536;6.042;2023-03-16T19:38:57;2.00;;;1.70;;
48403;SDS011;34202;52.536;6.042;2023-03-16T19:44:11;5.30;;;2.70;;
48403;SDS011;34202;52.536;6.042;2023-03-16T19:49:30;7.40;;;2.70;;
48403;SDS011;34202;52.536;6.042;2023-03-16T19:54:31;4.00;;;2.30;;
48403;SDS011;34202;52.536;6.042;2023-03-16T19:59:32;6.50;;;2.90;;
48403;SDS011;34202;52.536;6.042;2023-03-16T20:04:34;3.70;;;3.20;;
48403;SDS011;34202;52.536;6.042;2023-03-16T20:09:34;5.50;;;3.40;;
48403;SDS011;34202;52.536;6.042;2023-03-16T20:14:35;4.10;;;2.90;;
48403;SDS011;34202;52.536;6.042;2023-03-16T20:19:35;6.60;;;4.30;;
48403;SDS011;34202;52.536;6.042;2023-03-16T20:24:35;8.40;;;3.30;;
48403;SDS011;34202;52.536;6.042;2023-03-16T20:29:36;5.50;;;3.90;;
48403;SDS011;34202;52.536;6.042;2023-03-16T20:34:36;9.40;;;3.70;;
48403;SDS011;34202;52.536;6.042;2023-03-16T20:39:37;6.90;;;3.80;;
48403;SDS011;34202;52.536;6.042;2023-03-16T20:44:37;9.00;;;3.30;;
48403;SDS011;34202;52.536;6.042;2023-03-16T20:49:37;5.50;;;3.40;;
48403;SDS011;34202;52.536;6.042;2023-03-16T20:54:38;6.40;;;3.30;;
48403;SDS011;34202;52.536;6.042;2023-03-16T20:59:38;6.70;;;3.70;;
48403;SDS011;34202;52.536;6.042;2023-03-16T21:04:39;6.60;;;3.60;;
48403;SDS011;34202;52.536;6.042;2023-03-16T21:09:41;5.50;;;4.20;;
48403;SDS011;34202;52.536;6.042;2023-03-16T21:14:42;4.30;;;3.40;;
48403;SDS011;34202;52.536;6.042;2023-03-16T21:19:42;4.80;;;3.30;;
48403;SDS011;34202;52.536;6.042;2023-03-16T21:24:42;6.10;;;3.70;;
48403;SDS011;34202;52.536;6.042;2023-03-16T21:29:43;6.80;;;3.20;;
48403;SDS011;34202;52.536;6.042;2023-03-16T21:34:43;6.60;;;3.80;;
48403;SDS011;34202;52.536;6.042;2023-03-16T21:39:44;7.70;;;4.30;;
48403;SDS011;34202;52.536;6.042;2023-03-16T21:44:46;4.90;;;3.70;;
48403;SDS011;34202;52.536;6.042;2023-03-16T21:49:47;10.10;;;3.90;;
48403;SDS011;34202;52.536;6.042;2023-03-16T21:54:49;4.50;;;4.00;;
48403;SDS011;34202;52.536;6.042;2023-03-16T21:59:51;6.00;;;4.30;;
48403;SDS011;34202;52.536;6.042;2023-03-16T22:04:51;6.80;;;4.70;;
48403;SDS011;34202;52.536;6.042;2023-03-16T22:09:52;5.40;;;3.90;;
48403;SDS011;34202;52.536;6.042;2023-03-16T22:14:52;6.60;;;4.10;;
48403;SDS011;34202;52.536;6.042;2023-03-16T22:19:55;8.50;;;4.00;;
48403;SDS011;34202;52.536;6.042;2023-03-16T22:24:56;4.80;;;3.80;;
48403;SDS011;34202;52.536;6.042;2023-03-16T22:29:57;4.20;;;3.60;;
48403;SDS011;34202;52.536;6.042;2023-03-16T22:34:57;4.80;;;4.00;;
48403;SDS011;34202;52.536;6.042;2023-03-16T22:39:57;6.80;;;4.00;;
48403;SDS011;34202;52.536;6.042;2023-03-16T22:45:00;4.20;;;3.00;;
48403;SDS011;34202;52.536;6.042;2023-03-16T22:50:01;6.60;;;3.60;;
48403;SDS011;34202;52.536;6.042;2023-03-16T22:55:02;5.90;;;4.20;;
48403;SDS011;34202;52.536;6.042;2023-03-16T23:00:04;8.00;;;5.20;;
48403;SDS011;34202;52.536;6.042;2023-03-16T23:10:19;8.10;;;3.80;;
48403;SDS011;34202;52.536;6.042;2023-03-16T23:15:23;5.10;;;3.50;;
48403;SDS011;34202;52.536;6.042;2023-03-16T23:20:29;5.00;;;3.30;;
48403;SDS011;34202;52.536;6.042;2023-03-16T23:25:31;4.60;;;3.10;;
48403;SDS011;34202;52.536;6.042;2023-03-16T23:30:31;6.30;;;3.40;;
48403;SDS011;34202;52.536;6.042;2023-03-16T23:35:33;6.50;;;3.60;;
48403;SDS011;34202;52.536;6.042;2023-03-16T23:40:34;6.60;;;2.80;;
48403;SDS011;34202;52.536;6.042;2023-03-16T23:45:39;5.80;;;3.40;;
48403;SDS011;34202;52.536;6.042;2023-03-16T23:50:41;6.20;;;3.20;;
48403;SDS011;34202;52.536;6.042;2023-03-16T23:55:43;3.80;;;2.50;;
